createdAt,value
2022-10-08T00:01:05.141Z,2.33
2022-10-08T00:03:34.980Z,2.35
2022-10-08T00:06:05.521Z,2.80
2022-10-08T00:08:34.181Z,2.40
2022-10-08T00:11:05.317Z,2.83
2022-10-08T00:13:40.795Z,2.40
2022-10-08T00:16:12.887Z,2.63
2022-10-08T00:18:41.157Z,3.00
2022-10-08T00:21:16.656Z,2.53
2022-10-08T00:23:44.437Z,2.88
2022-10-08T00:26:11.373Z,2.20
2022-10-08T00:28:42.341Z,2.85
2022-10-08T00:31:19.134Z,2.45
2022-10-08T00:33:48.936Z,3.13
2022-10-08T00:36:15.353Z,3.08
2022-10-08T00:38:41.806Z,2.97
2022-10-08T00:41:17.928Z,2.45
2022-10-08T00:43:47.129Z,2.55
2022-10-08T00:46:23.594Z,3.10
2022-10-08T00:48:54.727Z,3.00
2022-10-08T00:51:21.534Z,2.75
2022-10-08T00:53:47.958Z,3.00
2022-10-08T00:56:14.541Z,2.50
2022-10-08T00:58:43.518Z,3.10
2022-10-08T01:01:10.170Z,3.33
2022-10-08T01:06:23.267Z,2.30
2022-10-08T01:08:49.638Z,3.10
2022-10-08T01:11:37.787Z,2.80
2022-10-08T01:14:22.491Z,2.90
2022-10-08T01:17:04.377Z,2.35
2022-10-08T01:19:36.744Z,2.60
2022-10-08T01:22:29.716Z,3.08
2022-10-08T01:25:28.071Z,2.55
2022-10-08T01:30:28.936Z,2.45
2022-10-08T01:33:05.815Z,2.95
2022-10-08T01:35:34.607Z,3.10
2022-10-08T01:38:07.150Z,2.65
2022-10-08T01:40:39.547Z,3.38
2022-10-08T01:43:10.463Z,3.00
2022-10-08T01:45:43.095Z,2.80
2022-10-08T01:48:16.218Z,3.33
2022-10-08T01:51:07.352Z,2.65
2022-10-08T01:53:40.378Z,2.88
2022-10-08T01:56:12.275Z,3.22
2022-10-08T01:58:41.442Z,2.95
2022-10-08T02:01:15.870Z,3.60
2022-10-08T02:04:02.486Z,3.03
2022-10-08T02:06:33.135Z,2.92
2022-10-08T02:08:59.606Z,2.90
2022-10-08T02:11:26.067Z,2.90
2022-10-08T02:13:52.562Z,3.00
2022-10-08T02:16:28.021Z,2.45
2022-10-08T02:19:12.559Z,3.03
2022-10-08T02:21:41.042Z,3.10
2022-10-08T02:24:10.479Z,2.60
2022-10-08T02:26:53.551Z,2.60
2022-10-08T02:29:29.109Z,2.80
2022-10-08T02:32:22.323Z,2.50
2022-10-08T02:35:05.191Z,2.92
2022-10-08T02:37:40.067Z,2.90
2022-10-08T02:40:10.967Z,2.90
2022-10-08T02:42:43.099Z,2.63
2022-10-08T02:45:28.149Z,3.55
2022-10-08T02:48:05.288Z,3.42
2022-10-08T02:50:34.703Z,2.83
2022-10-08T02:53:02.272Z,3.53
2022-10-08T02:56:00.795Z,3.03
2022-10-08T02:58:27.375Z,2.70
2022-10-08T03:01:18.499Z,3.05
2022-10-08T03:03:53.608Z,2.40
2022-10-08T03:06:20.580Z,2.72
2022-10-08T03:08:49.272Z,2.33
2022-10-08T03:11:16.140Z,2.70
2022-10-08T03:13:46.700Z,2.90
2022-10-08T04:17:34.160Z,2.58
2022-10-08T04:20:00.603Z,2.80
2022-10-08T04:22:27.091Z,3.03
2022-10-08T04:24:53.529Z,2.78
2022-10-08T04:27:20.014Z,2.95
2022-10-08T04:29:46.494Z,2.80
2022-10-08T04:32:12.897Z,2.90
2022-10-08T04:34:39.337Z,2.67
2022-10-08T04:37:05.755Z,4.25
2022-10-08T04:39:32.206Z,2.60
2022-10-08T04:41:58.646Z,2.90
2022-10-08T04:44:25.067Z,3.10
2022-10-08T04:46:51.614Z,3.20
2022-10-08T04:49:19.547Z,3.03
2022-10-08T04:51:45.966Z,2.85
2022-10-08T04:54:12.475Z,3.00
2022-10-08T04:56:39.008Z,2.60
2022-10-08T04:59:05.478Z,3.35
2022-10-08T05:01:32.141Z,2.80
2022-10-08T05:06:28.544Z,2.70
2022-10-08T05:08:55.547Z,2.70
2022-10-08T05:11:26.555Z,3.05
2022-10-08T05:13:54.771Z,3.47
2022-10-08T05:16:21.784Z,2.60
2022-10-08T05:18:50.755Z,3.22
2022-10-08T05:21:19.901Z,3.47
2022-10-08T05:23:46.664Z,3.10
2022-10-08T05:26:13.087Z,2.72
2022-10-08T05:28:39.978Z,3.15
2022-10-08T05:31:06.545Z,3.70
2022-10-08T05:33:35.306Z,2.75
2022-10-08T05:36:06.456Z,2.92
2022-10-08T05:38:35.265Z,2.95
2022-10-08T05:41:32.539Z,2.78
2022-10-08T05:44:02.049Z,2.90
2022-10-08T05:46:30.108Z,2.65
2022-10-08T05:49:00.021Z,2.95
2022-10-08T05:51:27.646Z,2.72
2022-10-08T05:53:56.712Z,3.10
2022-10-08T05:56:24.464Z,2.88
2022-10-08T05:58:51.287Z,3.10
2022-10-08T06:01:20.416Z,3.58
2022-10-08T06:03:51.152Z,3.10
2022-10-08T06:06:17.676Z,4.22
2022-10-08T06:08:44.500Z,3.60
2022-10-08T06:11:11.009Z,3.10
2022-10-08T06:13:37.505Z,3.42
2022-10-08T06:16:05.291Z,3.22
2022-10-08T06:18:34.351Z,3.28
2022-10-08T06:21:06.409Z,2.70
2022-10-08T06:23:33.689Z,3.28
2022-10-08T06:26:05.394Z,2.88
2022-10-08T06:28:33.810Z,4.00
2022-10-08T06:31:00.617Z,4.18
2022-10-08T06:33:28.178Z,3.25
2022-10-08T06:35:54.856Z,3.30
2022-10-08T06:40:47.934Z,3.25
2022-10-08T06:43:16.355Z,4.38
2022-10-08T06:45:44.115Z,3.15
2022-10-08T06:48:11.770Z,3.00
2022-10-08T06:50:38.566Z,3.47
2022-10-08T06:53:06.910Z,3.22
2022-10-08T06:55:34.587Z,4.03
2022-10-08T06:58:02.801Z,2.75
2022-10-08T07:00:29.614Z,2.95
2022-10-08T07:02:58.835Z,2.65
2022-10-08T07:05:25.354Z,2.78
2022-10-08T07:07:51.784Z,2.97
2022-10-08T07:10:18.792Z,2.72
2022-10-08T07:12:45.745Z,3.00
2022-10-08T07:15:12.535Z,2.72
2022-10-08T07:17:42.078Z,2.70
2022-10-08T07:20:08.753Z,2.90
2022-10-08T07:25:01.612Z,5.22
2022-10-08T07:27:28.083Z,3.53
2022-10-08T07:29:54.535Z,2.80
2022-10-08T07:32:20.976Z,2.83
2022-10-08T07:34:47.381Z,3.53
2022-10-08T07:37:13.817Z,2.80
2022-10-08T07:39:40.227Z,2.50
2022-10-08T07:42:06.678Z,2.40
2022-10-08T07:44:33.256Z,3.15
2022-10-08T07:46:59.690Z,2.70
2022-10-08T07:49:26.283Z,2.40
2022-10-08T07:51:52.753Z,2.92
2022-10-08T07:54:20.324Z,2.60
2022-10-08T07:56:47.419Z,2.70
2022-10-08T07:59:15.933Z,2.92
2022-10-08T08:01:43.226Z,2.65
2022-10-08T08:04:11.568Z,2.33
2022-10-08T08:06:41.288Z,2.88
2022-10-08T08:09:08.529Z,2.65
2022-10-08T08:11:35.134Z,2.30
2022-10-08T08:16:29.431Z,2.45
2022-10-08T08:18:58.757Z,2.28
2022-10-08T08:21:28.061Z,2.42
2022-10-08T08:23:56.606Z,3.03
2022-10-08T08:26:29.290Z,2.63
2022-10-08T08:28:58.381Z,2.47
2022-10-08T08:31:28.002Z,2.30
2022-10-08T08:33:57.909Z,2.38
2022-10-08T08:36:27.798Z,2.53
2022-10-08T08:38:55.042Z,2.08
2022-10-08T08:41:38.697Z,2.63
2022-10-08T08:44:11.786Z,2.75
2022-10-08T08:46:44.063Z,2.28
2022-10-08T08:49:33.962Z,2.80
2022-10-08T08:52:03.482Z,2.97
2022-10-08T08:54:30.458Z,2.72
2022-10-08T08:57:15.258Z,2.90
2022-10-08T08:59:46.783Z,2.88
2022-10-08T09:02:25.524Z,2.45
2022-10-08T09:04:57.419Z,2.90
2022-10-08T09:07:29.515Z,3.58
2022-10-08T09:09:58.822Z,2.60
2022-10-08T09:12:41.610Z,3.50
2022-10-08T09:15:41.120Z,2.78
2022-10-08T09:18:12.231Z,2.75
2022-10-08T09:20:40.437Z,3.33
2022-10-08T09:23:17.103Z,3.90
2022-10-08T09:25:47.987Z,3.28
2022-10-08T09:28:47.924Z,2.67
2022-10-08T09:31:38.889Z,2.80
2022-10-08T09:34:11.278Z,3.10
2022-10-08T09:36:42.562Z,3.28
2022-10-08T09:39:20.700Z,3.50
2022-10-08T09:42:11.261Z,3.30
2022-10-08T09:45:00.708Z,2.80
2022-10-08T09:47:27.586Z,4.28
2022-10-08T09:50:19.084Z,3.55
2022-10-08T09:52:49.599Z,3.85
2022-10-08T09:55:21.282Z,3.58
2022-10-08T09:57:55.356Z,3.33
2022-10-08T10:00:32.238Z,3.13
2022-10-08T10:03:00.359Z,3.63
2022-10-08T10:05:30.981Z,3.22
2022-10-08T10:07:57.935Z,3.35
2022-10-08T10:10:32.996Z,3.83
2022-10-08T10:13:06.896Z,3.70
2022-10-08T10:15:44.930Z,3.50
2022-10-08T10:18:14.334Z,3.20
2022-10-08T10:20:48.674Z,3.22
2022-10-08T10:23:19.697Z,3.95
2022-10-08T10:26:00.007Z,3.58
2022-10-08T10:28:40.175Z,4.05
2022-10-08T10:31:23.571Z,2.90
2022-10-08T10:33:57.734Z,2.72
2022-10-08T10:36:29.242Z,3.08
2022-10-08T10:39:17.237Z,2.90
2022-10-08T10:41:54.200Z,3.38
2022-10-08T10:44:26.742Z,2.97
2022-10-08T10:46:56.739Z,3.08
2022-10-08T10:49:30.907Z,3.47
2022-10-08T10:52:25.039Z,3.10
2022-10-08T10:55:24.931Z,3.10
2022-10-08T10:58:18.227Z,3.20
2022-10-08T11:00:59.992Z,3.40
2022-10-08T11:03:52.114Z,3.95
2022-10-08T11:06:24.502Z,3.53
2022-10-08T11:09:29.035Z,2.90
2022-10-08T11:12:05.863Z,3.17
2022-10-08T11:14:59.163Z,4.00
2022-10-08T11:17:58.243Z,2.65
2022-10-08T11:20:43.219Z,3.05
2022-10-08T11:23:48.404Z,7.50
2022-10-08T11:26:49.592Z,3.50
2022-10-08T11:29:26.481Z,2.78
2022-10-08T11:31:53.280Z,3.55
2022-10-08T11:34:35.344Z,3.13
2022-10-08T11:37:11.224Z,2.75
2022-10-08T11:39:37.800Z,2.88
2022-10-08T11:42:19.511Z,2.88
2022-10-08T11:44:46.173Z,2.63
2022-10-08T11:47:43.626Z,2.58
2022-10-08T11:50:24.341Z,2.88
2022-10-08T11:52:52.487Z,2.40
2022-10-08T11:55:33.208Z,2.95
2022-10-08T11:58:09.762Z,2.92
2022-10-08T12:00:44.928Z,2.50
2022-10-08T12:03:41.483Z,2.33
2022-10-08T12:06:28.418Z,2.28
2022-10-08T12:09:05.737Z,2.20
2022-10-08T12:11:32.148Z,2.53
2022-10-08T12:17:07.980Z,3.17
2022-10-08T12:19:34.705Z,1.90
2022-10-08T12:22:24.940Z,1.77
2022-10-08T12:24:53.359Z,2.33
2022-10-08T12:27:25.326Z,2.20
2022-10-08T12:30:07.369Z,2.35
2022-10-08T12:32:53.767Z,1.95
2022-10-08T12:35:31.769Z,2.35
2022-10-08T12:38:07.554Z,2.10
2022-10-08T12:40:55.675Z,2.00
2022-10-08T12:43:35.807Z,2.20
2022-10-08T12:46:21.230Z,2.22
2022-10-08T12:48:52.489Z,1.40
2022-10-08T12:51:32.163Z,1.35
2022-10-08T12:53:58.849Z,1.80
2022-10-08T12:56:28.547Z,1.20
2022-10-08T12:58:58.808Z,1.23
2022-10-08T13:01:26.137Z,1.40
2022-10-08T13:04:22.014Z,1.23
2022-10-08T13:06:53.985Z,1.65
2022-10-08T13:09:28.007Z,1.48
2022-10-08T13:12:00.668Z,1.83
2022-10-08T13:14:32.177Z,1.50
2022-10-08T13:16:58.936Z,2.30
2022-10-08T13:19:38.436Z,1.40
2022-10-08T13:22:26.201Z,1.80
2022-10-08T13:24:52.759Z,2.30
2022-10-08T13:27:28.314Z,1.50
2022-10-08T13:29:56.041Z,1.90
2022-10-08T13:32:34.981Z,1.85
2022-10-08T13:35:04.500Z,2.00
2022-10-08T13:37:37.954Z,1.80
2022-10-08T13:40:11.975Z,1.65
2022-10-08T13:42:48.526Z,1.58
2022-10-08T13:45:21.294Z,1.50
2022-10-08T13:47:48.415Z,1.40
2022-10-08T13:50:16.023Z,1.48
2022-10-08T13:52:53.605Z,1.60
2022-10-08T13:55:35.944Z,1.50
2022-10-08T13:58:04.443Z,1.92
2022-10-08T14:00:33.161Z,1.67
2022-10-08T14:02:59.753Z,1.80
2022-10-08T14:08:00.685Z,1.63
2022-10-08T14:10:27.285Z,1.60
2022-10-08T14:12:53.796Z,1.50
2022-10-08T14:17:49.611Z,1.63
2022-10-08T14:20:16.785Z,1.48
2022-10-08T14:22:43.281Z,1.70
2022-10-08T14:27:49.970Z,1.40
2022-10-08T14:30:17.559Z,1.90
2022-10-08T14:32:44.999Z,1.58
2022-10-08T14:35:12.306Z,1.70
2022-10-08T14:37:38.858Z,1.80
2022-10-08T14:40:07.686Z,1.73
2022-10-08T14:42:34.172Z,1.50
2022-10-08T14:47:27.613Z,1.40
2022-10-08T14:52:20.687Z,1.70
2022-10-08T14:54:47.218Z,1.45
2022-10-08T14:59:41.194Z,1.63
2022-10-08T15:02:11.056Z,1.38
2022-10-08T15:04:38.414Z,1.63
2022-10-08T15:07:05.559Z,1.40
2022-10-08T15:09:32.080Z,1.20
2022-10-08T15:14:25.017Z,1.50
2022-10-08T15:19:22.746Z,1.48
2022-10-08T15:21:50.381Z,1.42
2022-10-08T15:26:43.234Z,1.58
2022-10-08T15:31:36.078Z,1.67
2022-10-08T15:36:36.255Z,1.50
2022-10-08T15:39:08.821Z,1.98
2022-10-08T15:41:37.514Z,2.63
2022-10-08T15:44:25.103Z,2.25
2022-10-08T15:49:36.607Z,2.45
2022-10-08T15:52:04.545Z,1.58
2022-10-08T15:54:31.069Z,1.60
2022-10-08T15:59:23.896Z,1.35
2022-10-08T16:01:50.309Z,2.13
2022-10-08T16:04:16.748Z,3.60
2022-10-08T16:06:46.667Z,2.42
2022-10-08T16:09:15.011Z,2.20
2022-10-08T16:11:41.893Z,1.50
2022-10-08T16:14:11.800Z,1.90
2022-10-08T16:16:39.519Z,2.00
2022-10-08T16:19:23.368Z,1.73
2022-10-08T16:21:51.804Z,1.55
2022-10-08T16:24:18.396Z,1.50
2022-10-08T16:29:13.834Z,1.63
2022-10-08T16:31:42.551Z,1.67
2022-10-08T16:34:21.330Z,2.33
2022-10-08T16:36:48.673Z,1.95
2022-10-08T16:39:18.253Z,1.92
2022-10-08T16:41:45.566Z,2.40
2022-10-08T16:44:14.589Z,2.13
2022-10-08T16:46:44.618Z,3.05
2022-10-08T16:49:21.321Z,4.38
2022-10-08T16:51:54.252Z,4.70
2022-10-08T16:54:20.787Z,6.68
2022-10-08T16:59:20.014Z,4.68
2022-10-08T17:01:49.158Z,3.53
2022-10-08T17:04:16.977Z,6.80
2022-10-08T17:06:46.791Z,4.50
2022-10-08T17:09:13.724Z,4.53
2022-10-08T17:11:41.902Z,2.95
2022-10-08T17:14:10.310Z,3.72
2022-10-08T17:16:37.422Z,4.53
2022-10-08T17:19:04.447Z,5.40
2022-10-08T17:21:32.152Z,4.47
2022-10-08T17:23:59.603Z,4.65
2022-10-08T17:26:28.242Z,4.90
2022-10-08T17:28:55.170Z,4.68
2022-10-08T17:31:25.486Z,4.47
2022-10-08T17:33:52.573Z,4.47
2022-10-08T17:36:21.960Z,3.45
2022-10-08T17:38:52.692Z,3.47
2022-10-08T17:41:22.134Z,3.17
2022-10-08T17:43:49.365Z,3.03
2022-10-08T17:46:25.877Z,3.13
2022-10-08T17:48:52.995Z,3.15
2022-10-08T17:51:21.754Z,2.42
2022-10-08T17:53:53.403Z,2.25
2022-10-08T17:56:20.334Z,3.20
2022-10-08T17:58:48.018Z,3.10
2022-10-08T18:01:19.779Z,2.60
2022-10-08T18:03:58.855Z,2.97
2022-10-08T18:06:26.911Z,2.97
2022-10-08T18:08:59.385Z,3.95
2022-10-08T18:11:27.977Z,4.05
2022-10-08T18:13:54.586Z,3.35
2022-10-08T18:18:51.538Z,4.70
2022-10-08T18:21:19.612Z,3.58
2022-10-08T18:23:49.250Z,4.32
2022-10-08T18:26:18.686Z,4.68
2022-10-08T18:28:48.419Z,4.82
2022-10-08T18:31:15.827Z,3.72
2022-10-08T18:33:44.593Z,3.38
2022-10-08T18:36:13.770Z,3.63
2022-10-08T18:38:41.526Z,4.05
2022-10-08T18:41:13.064Z,3.10
2022-10-08T18:43:39.782Z,2.95
2022-10-08T18:46:06.556Z,2.70
2022-10-08T18:48:34.784Z,3.10
2022-10-08T18:51:13.107Z,3.78
2022-10-08T18:53:41.419Z,3.13
2022-10-08T18:56:11.098Z,3.22
2022-10-08T18:58:39.239Z,3.00
2022-10-08T19:01:07.012Z,2.88
2022-10-08T19:03:36.553Z,3.40
2022-10-08T19:06:07.083Z,3.17
2022-10-08T19:08:33.596Z,2.92
2022-10-08T19:11:11.497Z,3.15
2022-10-08T19:13:40.375Z,2.70
2022-10-08T19:16:13.307Z,3.08
2022-10-08T19:18:45.421Z,2.85
2022-10-08T19:21:13.667Z,2.85
2022-10-08T19:23:40.452Z,2.80
2022-10-08T19:26:07.301Z,2.70
2022-10-08T19:28:37.174Z,2.35
2022-10-08T19:31:13.910Z,1.98
2022-10-08T19:33:40.688Z,8.80
2022-10-08T19:36:07.342Z,10.38
2022-10-08T19:43:32.360Z,3.80
2022-10-08T19:46:05.640Z,4.25
2022-10-08T19:48:32.722Z,3.72
2022-10-08T19:51:07.286Z,3.38
2022-10-08T19:53:34.355Z,3.67
2022-10-08T19:56:04.633Z,3.28
2022-10-08T19:58:31.842Z,3.10
2022-10-08T20:01:03.986Z,5.30
2022-10-08T20:03:30.658Z,4.28
2022-10-08T20:05:57.108Z,4.57
2022-10-08T20:08:23.545Z,3.65
2022-10-08T20:10:49.990Z,3.38
2022-10-08T20:13:16.459Z,4.22
2022-10-08T20:15:45.456Z,3.25
2022-10-08T20:18:14.103Z,2.50
2022-10-08T20:20:40.529Z,3.05
2022-10-08T20:23:07.162Z,3.47
2022-10-08T20:28:00.130Z,3.13
2022-10-08T20:30:26.565Z,3.80
2022-10-08T20:32:52.997Z,3.50
2022-10-08T20:35:19.405Z,3.05
2022-10-08T20:37:45.987Z,4.03
2022-10-08T20:42:38.841Z,4.95
2022-10-08T20:45:05.704Z,4.40
2022-10-08T20:47:32.153Z,3.83
2022-10-08T20:49:58.556Z,4.10
2022-10-08T20:52:25.016Z,3.40
2022-10-08T20:54:51.452Z,3.58
2022-10-08T20:57:17.865Z,3.50
2022-10-08T20:59:44.317Z,3.95
2022-10-08T21:02:11.463Z,5.60
2022-10-08T21:04:38.064Z,4.00
2022-10-08T21:07:04.464Z,4.00
2022-10-08T21:09:31.069Z,4.43
2022-10-08T21:11:57.514Z,3.97
2022-10-08T21:14:24.084Z,3.25
2022-10-08T21:19:19.236Z,4.35
2022-10-08T21:21:45.692Z,3.70
2022-10-08T21:24:12.138Z,3.70
2022-10-08T21:26:41.302Z,3.70
2022-10-08T21:29:10.251Z,4.43
2022-10-08T21:31:38.583Z,3.80
2022-10-08T21:34:05.823Z,3.40
2022-10-08T21:36:35.533Z,3.92
2022-10-08T21:39:03.874Z,4.07
2022-10-08T21:41:32.844Z,4.25
2022-10-08T21:44:01.202Z,3.78
2022-10-08T21:46:30.837Z,3.38
2022-10-08T21:49:03.562Z,2.90
2022-10-08T21:51:30.706Z,3.10
2022-10-08T21:53:59.098Z,3.42
2022-10-08T21:56:28.022Z,3.28
2022-10-08T21:58:57.022Z,2.88
2022-10-08T22:01:37.147Z,3.03
2022-10-08T22:04:05.158Z,2.78
2022-10-08T22:06:34.468Z,3.00
2022-10-08T22:09:00.970Z,2.75
2022-10-08T22:11:27.774Z,2.85
2022-10-08T22:13:54.282Z,2.97
2022-10-08T22:16:22.787Z,2.90
2022-10-08T22:18:49.346Z,2.38
2022-10-08T22:21:21.060Z,2.33
2022-10-08T22:23:50.099Z,2.70
2022-10-08T22:26:22.241Z,2.65
2022-10-08T22:28:50.009Z,2.75
2022-10-08T22:31:18.239Z,3.38
2022-10-08T22:33:45.674Z,2.05
2022-10-08T22:36:24.942Z,2.30
2022-10-08T22:38:52.444Z,1.95
2022-10-08T22:41:27.872Z,1.90
2022-10-08T22:43:54.552Z,2.53
2022-10-08T22:51:19.253Z,2.33
2022-10-08T22:53:46.549Z,2.55
2022-10-08T22:56:17.006Z,2.67
2022-10-08T22:58:44.014Z,2.55
2022-10-08T23:03:38.515Z,2.50
2022-10-08T23:06:18.362Z,2.20
2022-10-08T23:08:46.524Z,2.20
2022-10-08T23:11:14.710Z,2.30
2022-10-08T23:13:41.431Z,2.30
2022-10-08T23:18:38.499Z,2.40
2022-10-08T23:21:07.814Z,2.67
2022-10-08T23:23:35.558Z,2.40
2022-10-08T23:26:04.437Z,2.65
2022-10-08T23:28:33.014Z,2.35
2022-10-08T23:31:14.693Z,2.38
2022-10-08T23:33:43.257Z,2.33
2022-10-08T23:36:17.085Z,2.60
2022-10-08T23:38:43.726Z,2.20
2022-10-08T23:41:11.546Z,2.05
2022-10-08T23:43:40.439Z,2.22
2022-10-08T23:46:08.337Z,2.55
2022-10-08T23:48:35.333Z,2.50
2022-10-08T23:51:02.146Z,2.47
2022-10-08T23:53:29.357Z,2.22
2022-10-08T23:55:55.954Z,2.50
2022-10-08T23:58:22.358Z,2.22
